Marriottsville, Maryland
Current Conditions -  °F | °C
As of 5:54 PM on Thursday 23 Oct 2014 (Local Time) from KBWI Reporting Station
Broken Clouds Broken Clouds  
Wind Chill: 61°   Ceiling: 5000
Heat Index: 61°   Visibility: 10mi
Dew Point: 45°   Wind: 9mph
Humidity: 56%   Direction: 310°NW
Pressure: 29.82"   Gusts: NA
Location:  39.32°N, 76.92°W
Report Text: KBWI 232154Z 31008KT 10SM BKN050 BKN065 16/07 A2982 RMK AO2 SLP098 T01610072
Loading
Personal Weather Stations






























Interactive Weather Map
Tropical Storm Tracking
New forecast layout! Learn more

10-Day Weather Forecast

Advertisements
Track Severe Weather on mobile